Time;durP1;ratioP1;P1;durP2;ratioP2;P2;SDS_P1;SDS_P2;PMS_P1;PMS_P2;Temp;Humidity;BMP_temperature;BMP_pressure;BME280_temperature;BME280_humidity;BME280_pressure;Samples;Min_cycle;Max_cycle;Signal;HPM_P1;HPM_P2
2021/05/22 00:01:12;;;;;;;27.17;18.85;;;;;;;12.14;64.03;100263.30;1667318;85;21119;-93
2021/05/22 00:03:40;;;;;;;27.22;18.23;;;;;;;12.13;64.24;100261.67;1588129;87;21005;-94
2021/05/22 00:06:06;;;;;;;28.15;16.45;;;;;;;12.13;64.15;100266.17;1600274;85;21130;-92
2021/05/22 00:08:34;;;;;;;24.65;17.45;;;;;;;12.13;64.28;100267.51;1598061;88;21675;-93
2021/05/22 00:11:03;;;;;;;25.02;17.60;;;;;;;12.12;64.22;100260.53;1609208;87;21086;-92
2021/05/22 00:13:29;;;;;;;22.05;16.35;;;;;;;12.16;64.28;100261.25;1642931;86;21234;-93
2021/05/22 00:15:55;;;;;;;25.43;17.42;;;;;;;12.23;64.22;100259.44;1644083;86;21123;-94
2021/05/22 00:18:22;;;;;;;24.25;17.50;;;;;;;12.24;64.35;100255.75;1629112;86;21078;-92
2021/05/22 00:20:48;;;;;;;28.70;17.65;;;;;;;12.21;64.47;100261.48;1629839;86;21056;-89
2021/05/22 00:23:15;;;;;;;30.30;17.98;;;;;;;12.18;64.87;100261.88;1624797;86;21049;-92
2021/05/22 00:25:43;;;;;;;20.70;16.48;;;;;;;12.13;65.06;100258.16;1627493;83;21273;-93
2021/05/22 00:28:10;;;;;;;20.43;16.02;;;;;;;12.04;65.26;100254.86;1631273;86;21103;-93
2021/05/22 00:30:37;;;;;;;22.48;16.77;;;;;;;11.98;65.36;100257.81;1636860;86;21242;-92
2021/05/22 00:33:04;;;;;;;31.57;16.82;;;;;;;12.00;65.48;100260.30;1655588;86;21174;-93
2021/05/22 00:35:31;;;;;;;25.57;15.13;;;;;;;12.04;65.29;100260.20;1660757;85;21210;-94
2021/05/22 00:37:57;;;;;;;23.40;15.68;;;;;;;12.04;65.44;100267.70;1663644;85;21739;-94
2021/05/22 00:40:23;;;;;;;28.25;15.72;;;;;;;11.99;65.47;100266.12;1661199;85;21063;-93
2021/05/22 00:42:50;;;;;;;22.65;14.68;;;;;;;11.97;65.43;100270.03;1666731;85;22124;-92
2021/05/22 00:45:20;;;;;;;22.77;15.68;;;;;;;11.94;65.54;100270.41;1661125;85;21115;-92
2021/05/22 00:47:54;;;;;;;28.23;14.83;;;;;;;11.90;65.76;100272.66;1660382;85;21171;-92
2021/05/22 00:50:30;;;;;;;26.35;14.47;;;;;;;11.91;65.80;100266.31;1661358;85;21606;-93
2021/05/22 00:52:57;;;;;;;23.47;14.73;;;;;;;11.95;65.72;100263.55;1654690;85;21153;-92
2021/05/22 00:55:24;;;;;;;19.87;14.13;;;;;;;11.92;65.86;100262.59;1664058;85;21211;-92
2021/05/22 00:57:52;;;;;;;21.73;14.00;;;;;;;11.86;65.91;100268.70;1684686;83;21213;-93
2021/05/22 01:00:40;;;;;;;20.50;14.07;;;;;;;11.82;65.76;100262.94;1625662;85;21687;-93
2021/05/22 01:03:27;;;;;;;20.63;15.10;;;;;;;11.79;65.78;100262.02;1669948;83;21090;-92
2021/05/22 01:06:14;;;;;;;18.83;13.10;;;;;;;11.76;65.82;100262.41;1671066;83;21063;-90
2021/05/22 01:08:48;;;;;;;24.15;14.05;;;;;;;11.69;65.95;100263.69;1672144;83;21608;-93
2021/05/22 01:11:20;;;;;;;25.77;12.90;;;;;;;11.66;66.01;100264.10;1662755;83;21103;-93
2021/05/22 01:13:57;;;;;;;24.75;13.48;;;;;;;11.69;66.07;100258.87;1657766;85;21265;-93
2021/05/22 01:16:25;;;;;;;21.57;14.28;;;;;;;11.68;66.10;100269.25;1642118;86;21157;-91
2021/05/22 01:18:54;;;;;;;17.03;12.77;;;;;;;11.62;66.40;100263.34;1679037;81;21017;-93
2021/05/22 01:21:22;;;;;;;21.53;13.53;;;;;;;11.58;66.50;100266.09;1641105;84;21239;-93
2021/05/22 01:24:03;;;;;;;17.10;12.95;;;;;;;11.52;66.56;100260.22;1648172;85;21050;-92
2021/05/22 01:26:31;;;;;;;25.23;14.57;;;;;;;11.47;66.67;100264.30;1650397;84;21091;-93
2021/05/22 01:28:58;;;;;;;22.07;13.77;;;;;;;11.49;66.68;100268.12;1645039;85;21198;-92
2021/05/22 01:31:27;;;;;;;20.00;13.00;;;;;;;11.52;66.73;100271.71;1654336;85;21714;-92
2021/05/22 01:33:54;;;;;;;20.00;13.37;;;;;;;11.51;66.88;100275.41;1641005;85;21148;-93
2021/05/22 01:36:21;;;;;;;15.63;11.70;;;;;;;11.44;67.03;100275.88;1650228;85;21080;-92
2021/05/22 01:38:47;;;;;;;17.13;12.30;;;;;;;11.34;67.25;100270.05;1662921;86;21084;-93
2021/05/22 01:41:14;;;;;;;19.77;13.57;;;;;;;11.32;67.60;100284.94;1665359;85;21110;-94
2021/05/22 01:43:46;;;;;;;19.53;13.43;;;;;;;11.24;67.87;100282.40;1653669;85;21228;-93
2021/05/22 01:46:13;;;;;;;15.30;11.63;;;;;;;11.23;67.92;100286.10;1624912;86;21585;-92
2021/05/22 01:48:40;;;;;;;19.80;12.53;;;;;;;11.28;68.02;100287.66;1644515;85;21198;-92
2021/05/22 01:51:14;;;;;;;18.07;12.05;;;;;;;11.27;68.14;100284.17;1660130;85;21106;-93
2021/05/22 01:53:43;;;;;;;13.63;11.30;;;;;;;11.23;68.24;100286.10;1646778;85;21093;-90
2021/05/22 01:56:13;;;;;;;18.27;12.70;;;;;;;11.18;68.48;100296.00;1620619;86;21192;-93
2021/05/22 01:58:40;;;;;;;16.10;11.37;;;;;;;11.13;68.63;100293.08;1646747;85;21772;-89
2021/05/22 02:01:12;;;;;;;15.13;11.03;;;;;;;11.17;68.71;100295.70;1662029;84;21586;-92
2021/05/22 02:03:47;;;;;;;15.37;12.20;;;;;;;11.24;68.46;100285.88;1653885;85;21070;-94
2021/05/22 02:06:21;;;;;;;17.73;12.10;;;;;;;11.24;68.51;100293.07;1646599;86;21064;-93
2021/05/22 02:08:52;;;;;;;17.70;11.77;;;;;;;11.18;68.76;100289.33;1651394;85;21203;-89
2021/05/22 02:11:21;;;;;;;17.60;11.70;;;;;;;11.15;68.94;100291.56;1648714;85;21740;-93
2021/05/22 02:13:48;;;;;;;21.10;11.93;;;;;;;11.11;69.08;100297.78;1627823;86;21116;-93
2021/05/22 02:16:22;;;;;;;14.27;11.07;;;;;;;11.09;69.08;100307.34;1631316;85;21163;-91
2021/05/22 02:18:52;;;;;;;16.13;11.13;;;;;;;11.14;69.03;100299.27;1607257;86;21592;-93
2021/05/22 02:21:23;;;;;;;17.37;11.03;;;;;;;11.22;68.91;100295.11;1647222;85;21187;-94
2021/05/22 02:23:51;;;;;;;19.53;11.13;;;;;;;11.21;68.87;100303.63;1651267;84;20999;-92
2021/05/22 02:26:22;;;;;;;16.97;11.83;;;;;;;11.18;69.16;100293.34;1670992;84;21067;-93
2021/05/22 02:28:50;;;;;;;15.97;10.57;;;;;;;11.18;69.10;100300.52;1633350;86;21476;-93
2021/05/22 02:31:21;;;;;;;13.93;10.83;;;;;;;11.17;69.14;100293.52;1624976;86;21652;-94
2021/05/22 02:33:49;;;;;;;13.43;9.83;;;;;;;11.16;69.05;100293.22;1675613;84;21587;-95
2021/05/22 02:36:15;;;;;;;11.07;9.90;;;;;;;11.21;68.87;100298.30;1652159;85;21105;-93
2021/05/22 02:38:50;;;;;;;12.43;9.87;;;;;;;11.32;68.67;100297.44;1653068;85;21700;-93
2021/05/22 02:41:18;;;;;;;12.80;9.63;;;;;;;11.37;68.44;100299.02;1651405;86;21200;-93
2021/05/22 02:43:49;;;;;;;12.07;10.50;;;;;;;11.39;68.46;100312.47;1657672;85;21152;-92
2021/05/22 02:46:19;;;;;;;17.03;9.30;;;;;;;11.41;68.17;100306.43;1647718;83;21016;-94
2021/05/22 02:48:47;;;;;;;12.47;8.63;;;;;;;11.46;68.10;100310.69;1666069;84;21071;-92
2021/05/22 02:51:19;;;;;;;11.97;9.43;;;;;;;11.64;67.66;100310.20;1655236;85;21092;-93
2021/05/22 02:53:46;;;;;;;15.53;10.37;;;;;;;12.08;66.67;100309.02;1653397;85;21087;-91
2021/05/22 02:56:14;;;;;;;10.13;9.13;;;;;;;12.61;65.24;100309.70;1659217;85;21143;-92
2021/05/22 02:58:44;;;;;;;13.40;10.05;;;;;;;13.16;63.65;100312.23;1656571;85;21096;-92
2021/05/22 03:01:11;;;;;;;16.73;9.70;;;;;;;13.71;62.32;100322.73;1648985;86;21072;-91
2021/05/22 03:03:39;;;;;;;10.80;9.13;;;;;;;14.29;60.77;100317.06;1653801;85;21034;-91
2021/05/22 03:06:07;;;;;;;16.20;9.28;;;;;;;14.78;58.19;100324.98;1647959;85;21066;-92
2021/05/22 03:08:47;;;;;;;15.30;9.70;;;;;;;15.17;57.19;100321.19;1656406;85;21100;-91
2021/05/22 03:11:15;;;;;;;16.35;8.83;;;;;;;15.50;55.70;100329.99;1621630;86;22088;-91
2021/05/22 03:13:42;;;;;;;10.82;7.95;;;;;;;15.80;54.90;100334.70;1654319;85;21125;-91
2021/05/22 03:16:08;;;;;;;10.80;7.80;;;;;;;16.11;53.75;100332.40;1649538;85;21129;-87
2021/05/22 03:18:34;;;;;;;10.43;7.92;;;;;;;16.40;52.82;100326.75;1645846;85;21083;-91
2021/05/22 03:21:01;;;;;;;7.60;6.95;;;;;;;16.65;51.80;100341.94;1663759;85;21087;-90
2021/05/22 03:23:28;;;;;;;10.23;7.25;;;;;;;16.78;51.13;100336.36;1662855;85;21611;-90
2021/05/22 03:25:56;;;;;;;8.58;6.58;;;;;;;16.98;50.47;100344.19;1667427;85;21119;-89
2021/05/22 03:28:22;;;;;;;10.48;7.95;;;;;;;17.12;49.54;100340.25;1671936;85;21144;-89
2021/05/22 03:30:48;;;;;;;8.08;6.85;;;;;;;17.23;49.10;100346.69;1676739;85;21087;-91
2021/05/22 03:33:16;;;;;;;8.83;6.28;;;;;;;17.25;48.89;100343.77;1635614;85;21096;-90
2021/05/22 03:35:43;;;;;;;13.28;6.92;;;;;;;17.25;48.89;100343.77;1650344;85;21120;-90
2021/05/22 03:38:09;;;;;;;7.00;6.37;;;;;;;17.35;49.07;100349.92;1653109;85;21033;-91
2021/05/22 03:40:35;;;;;;;6.83;6.15;;;;;;;17.63;48.77;100348.73;1642347;85;21657;-89
2021/05/22 03:43:01;;;;;;;6.70;5.25;;;;;;;17.90;47.77;100350.42;1642264;86;21069;-89
2021/05/22 03:45:27;;;;;;;6.67;5.58;;;;;;;18.16;47.62;100356.38;1637736;86;21032;-89
2021/05/22 03:47:55;;;;;;;6.45;5.62;;;;;;;18.51;46.95;100350.58;1638657;86;21166;-89
2021/05/22 03:50:20;;;;;;;;;;;;;;;18.78;45.84;100347.59;1641439;85;21174;-89
2021/05/22 03:52:46;;;;;;;4.50;4.10;;;;;;;18.93;45.13;100348.94;1629908;85;20222;-89
2021/05/22 03:55:14;;;;;;;6.78;4.97;;;;;;;18.84;45.62;100348.53;1631971;86;21052;-89
2021/05/22 03:57:40;;;;;;;7.90;4.85;;;;;;;18.90;45.15;100348.91;1646961;85;21125;-88
2021/05/22 04:00:09;;;;;;;6.42;5.03;;;;;;;18.99;45.26;100346.63;1647673;85;21109;-89
2021/05/22 04:02:36;;;;;;;4.53;4.10;;;;;;;19.17;44.96;100349.08;1651058;86;21175;-88
2021/05/22 04:05:04;;;;;;;4.78;3.80;;;;;;;19.48;44.37;100355.50;1682910;81;21060;-88
2021/05/22 04:07:31;;;;;;;5.80;3.95;;;;;;;19.49;43.45;100299.84;1661713;83;21123;-87
2021/05/22 04:09:57;;;;;;;3.70;3.47;;;;;;;20.09;41.74;100353.70;1658619;85;21092;-89
2021/05/22 04:12:23;;;;;;;4.37;2.65;;;;;;;20.22;42.35;100362.80;1661529;85;21633;-88
2021/05/22 04:14:51;;;;;;;3.50;3.27;;;;;;;20.58;41.81;100365.11;1630772;86;21221;-88
2021/05/22 04:17:17;;;;;;;3.52;2.60;;;;;;;21.03;40.79;100361.25;1644075;85;21163;-87
2021/05/22 04:19:43;;;;;;;4.28;2.65;;;;;;;21.48;39.52;100372.22;1655254;85;21847;-86
2021/05/22 04:22:11;;;;;;;2.17;2.08;;;;;;;21.92;38.84;100374.66;1688325;84;21743;-87
2021/05/22 04:24:38;;;;;;;2.47;2.22;;;;;;;22.25;36.37;100369.98;1660733;85;21141;-87
2021/05/22 04:27:05;;;;;;;2.70;2.00;;;;;;;22.24;36.53;100366.14;1664633;86;21147;-87
2021/05/22 04:29:31;;;;;;;2.77;2.55;;;;;;;22.17;36.13;100363.69;1663230;85;21745;-85
2021/05/22 04:31:59;;;;;;;4.95;2.50;;;;;;;22.20;36.65;100368.56;1609070;86;21167;-84
2021/05/22 04:34:25;;;;;;;5.45;2.52;;;;;;;22.35;36.05;100364.58;1634751;85;21091;-86
2021/05/22 04:36:51;;;;;;;4.47;2.15;;;;;;;22.26;35.56;100330.07;1643198;85;21183;-84
2021/05/22 04:39:17;;;;;;;6.53;2.20;;;;;;;22.46;35.22;100367.34;1648711;85;21063;-86
2021/05/22 04:41:43;;;;;;;;;;;;;;;22.39;35.71;100368.13;1658287;85;21298;-86
2021/05/22 04:44:09;;;;;;;1.50;1.40;;;;;;;22.34;35.19;100369.75;1656403;85;20236;-86
2021/05/22 04:46:36;;;;;;;3.77;1.37;;;;;;;22.32;35.83;100362.41;1661699;85;21250;-84
2021/05/22 04:49:02;;;;;;;2.35;2.15;;;;;;;22.24;35.64;100358.00;1651277;85;22092;-85
2021/05/22 04:51:29;;;;;;;4.65;1.50;;;;;;;22.05;35.52;100359.81;1641897;85;21151;-85
2021/05/22 04:54:05;;;;;;;5.30;1.17;;;;;;;21.83;36.41;100370.84;1667144;85;21099;-86
2021/05/22 04:56:33;;;;;;;2.70;1.32;;;;;;;21.49;36.53;100367.61;1642572;85;21179;-86
2021/05/22 04:59:01;;;;;;;2.72;1.77;;;;;;;21.32;36.98;100367.72;1663863;85;21198;-86
2021/05/22 05:01:28;;;;;;;1.95;1.45;;;;;;;21.09;37.33;100368.34;1650291;85;21009;-83
2021/05/22 05:03:55;;;;;;;3.95;1.30;;;;;;;20.89;37.70;100374.92;1652910;84;21112;-84
2021/05/22 05:06:21;;;;;;;6.67;1.92;;;;;;;20.68;38.40;100376.09;1679104;85;21084;-83
2021/05/22 05:08:47;;;;;;;1.45;1.35;;;;;;;20.61;38.80;100383.59;1655553;84;21076;-85
2021/05/22 05:11:13;;;;;;;2.17;1.82;;;;;;;20.66;38.41;100383.63;1667269;84;21105;-84
2021/05/22 05:13:41;;;;;;;3.85;1.60;;;;;;;20.64;38.96;100381.72;1660678;84;21171;-86
2021/05/22 05:16:07;;;;;;;;;;;;;;;20.65;38.94;100375.78;1655573;84;21173;-86
2021/05/22 05:18:35;;;;;;;3.33;1.90;;;;;;;20.67;39.09;100378.51;1669916;84;20222;-86
2021/05/22 05:21:02;;;;;;;6.58;2.10;;;;;;;20.78;39.17;100377.55;1666601;84;21227;-88
2021/05/22 05:23:28;;;;;;;3.05;1.67;;;;;;;20.98;38.97;100376.94;1674531;83;21077;-85
2021/05/22 05:25:54;;;;;;;;;;;;;;;21.03;38.64;100381.58;1685454;83;21654;-86
2021/05/22 05:28:21;;;;;;;3.60;1.50;;;;;;;20.91;39.32;100382.29;1663409;83;20253;-85
2021/05/22 05:30:48;;;;;;;2.98;1.55;;;;;;;20.76;39.62;100386.47;1686235;83;21113;-86
2021/05/22 05:33:15;;;;;;;5.25;2.17;;;;;;;20.76;39.31;100381.05;1686880;83;21081;-86
2021/05/22 05:35:41;;;;;;;6.85;2.65;;;;;;;20.63;39.61;100371.97;1666920;83;21161;-85
2021/05/22 05:38:07;;;;;;;;;;;;;;;20.58;39.83;100374.58;1685921;83;21698;-85
2021/05/22 05:40:33;;;;;;;4.50;1.60;;;;;;;20.39;39.65;100381.67;1659418;83;20248;-85
2021/05/22 05:42:59;;;;;;;;;;;;;;;20.34;40.87;100379.45;1651537;85;21670;-86
2021/05/22 05:45:25;;;;;;;2.10;1.72;;;;;;;20.41;40.49;100385.49;1664835;83;20315;-87
2021/05/22 05:47:53;;;;;;;3.60;1.65;;;;;;;20.12;40.79;100386.22;1663372;85;21233;-88
2021/05/22 05:50:20;;;;;;;3.83;1.65;;;;;;;20.08;41.43;100385.91;1662539;85;21094;-86
2021/05/22 05:52:46;;;;;;;3.60;1.52;;;;;;;20.34;40.84;100393.81;1638378;86;21219;-88
2021/05/22 05:55:13;;;;;;;0.93;0.88;;;;;;;20.62;40.58;100397.41;1652736;85;21082;-87
2021/05/22 05:57:39;;;;;;;1.62;1.15;;;;;;;20.82;39.60;100398.17;1678149;85;21171;-88
2021/05/22 06:00:09;;;;;;;3.80;1.72;;;;;;;20.97;39.75;100408.35;1664441;85;21094;-87
2021/05/22 06:02:35;;;;;;;1.87;0.90;;;;;;;20.89;39.10;100415.56;1653584;85;21139;-89
2021/05/22 06:05:01;;;;;;;;;;;;;;;20.65;39.73;100415.86;1661733;85;21086;-87
2021/05/22 06:07:27;;;;;;;2.27;0.95;;;;;;;20.63;40.12;100418.55;1662844;85;20285;-87
2021/05/22 06:09:54;;;;;;;3.37;1.07;;;;;;;20.53;39.48;100416.48;1657356;85;21151;-88
2021/05/22 06:12:20;;;;;;;1.90;1.07;;;;;;;20.51;39.53;100414.05;1655762;85;21069;-86
2021/05/22 06:14:53;;;;;;;;;;;;;;;20.61;39.79;100415.55;1657908;85;21074;-87
2021/05/22 06:17:17;;;;;;;3.15;1.10;;;;;;;20.82;38.80;100423.09;1645534;85;20189;-86
2021/05/22 06:19:43;;;;;;;;;;;;;;;20.90;38.81;100426.70;1653965;85;21145;-87
2021/05/22 06:22:11;;;;;;;2.50;1.40;;;;;;;20.85;40.04;100425.28;1648937;85;20272;-87
2021/05/22 06:24:37;;;;;;;1.62;0.95;;;;;;;20.63;39.59;100429.39;1660010;85;21107;-87
2021/05/22 06:27:04;;;;;;;3.55;1.25;;;;;;;20.48;40.06;100439.46;1664018;85;21090;-88
2021/05/22 06:29:30;;;;;;;4.42;1.30;;;;;;;20.38;40.56;100435.55;1667695;85;21215;-86
2021/05/22 06:31:57;;;;;;;5.03;1.82;;;;;;;20.57;39.86;100435.25;1657073;85;21110;-88
2021/05/22 06:34:24;;;;;;;4.62;1.12;;;;;;;20.61;39.99;100437.21;1661829;85;21094;-86
2021/05/22 06:36:50;;;;;;;1.85;1.22;;;;;;;20.72;39.45;100445.45;1655065;86;21066;-88
2021/05/22 06:39:17;;;;;;;5.95;1.87;;;;;;;20.77;39.74;100444.97;1658262;85;22166;-87
2021/05/22 06:41:42;;;;;;;;;;;;;;;20.88;40.00;100446.45;1662689;85;21209;-89
2021/05/22 06:44:13;;;;;;;2.65;1.67;;;;;;;21.24;39.36;100442.75;1657883;85;20301;-87
2021/05/22 06:49:03;;;;;;;;;;;;;;;21.87;38.89;100431.64;1667141;85;21173;-87
2021/05/22 06:51:29;;;;;;;7.22;1.57;;;;;;;22.20;37.47;100443.22;1665112;85;20244;-87
2021/05/22 06:53:55;;;;;;;8.70;1.57;;;;;;;22.30;36.44;100441.97;1647581;85;21067;-86
2021/05/22 06:56:22;;;;;;;7.05;1.32;;;;;;;22.25;36.36;100441.94;1648195;85;21169;-88
2021/05/22 06:58:48;;;;;;;6.17;2.00;;;;;;;22.04;36.40;100438.78;1650576;85;21149;-88
2021/05/22 07:01:14;;;;;;;7.35;1.60;;;;;;;21.87;36.82;100438.94;1659733;85;21084;-89
2021/05/22 07:03:41;;;;;;;9.50;1.47;;;;;;;21.90;37.08;100433.81;1663759;85;21710;-88
2021/05/22 07:06:11;;;;;;;5.60;1.32;;;;;;;21.93;36.99;100434.66;1664517;86;21163;-87
2021/05/22 07:08:35;;;;;;;4.78;0.57;;;;;;;21.90;37.05;100426.22;1663467;85;21083;-89
2021/05/22 07:11:01;;;;;;;1.80;0.70;;;;;;;21.53;36.28;100407.52;1618728;86;21111;-88
2021/05/22 07:13:28;;;;;;;4.92;1.02;;;;;;;21.53;36.58;100433.29;1651413;85;21111;-88
2021/05/22 07:17:56;;;;;;;1.42;0.50;;;;;;;21.64;36.10;100417.08;1823670;77;22831;-86
2021/05/22 07:20:23;;;;;;;6.42;0.93;;;;;;;21.64;35.87;100415.17;1803357;78;21107;-87
2021/05/22 07:22:51;;;;;;;3.45;0.70;;;;;;;21.74;35.67;100417.17;1807182;77;21028;-86
2021/05/22 07:25:18;;;;;;;1.60;0.40;;;;;;;21.78;35.86;100424.52;1772730;79;21606;-88
2021/05/22 07:27:48;;;;;;;1.60;0.35;;;;;;;21.88;35.10;100405.31;1728907;81;21126;-88
2021/05/22 07:30:16;;;;;;;1.37;0.37;;;;;;;21.87;34.32;100409.09;1725970;81;21130;-88
2021/05/22 07:32:45;;;;;;;3.25;0.62;;;;;;;21.69;34.42;100403.56;1764988;80;21131;-87
2021/05/22 07:35:14;;;;;;;4.40;0.20;;;;;;;21.66;34.32;100406.78;1728803;79;21798;-88
2021/05/22 07:37:42;;;;;;;3.15;0.30;;;;;;;21.65;34.67;100399.74;1744327;80;21967;-87
2021/05/22 07:40:11;;;;;;;1.20;0.30;;;;;;;21.68;35.16;100401.92;1755312;80;21114;-87
2021/05/22 07:42:37;;;;;;;1.12;0.20;;;;;;;21.71;33.56;100404.12;1752630;80;21616;-87
2021/05/22 07:45:06;;;;;;;1.72;0.70;;;;;;;21.74;33.80;100398.98;1757367;80;21061;-88
2021/05/22 07:47:32;;;;;;;4.03;0.13;;;;;;;21.82;33.46;100409.08;1778477;80;21193;-88
2021/05/22 07:49:58;;;;;;;0.62;0.30;;;;;;;21.71;33.31;100402.22;1758565;80;21088;-87
2021/05/22 07:52:24;;;;;;;4.23;0.43;;;;;;;21.55;33.73;100405.91;1785127;79;21146;-89
2021/05/22 07:54:50;;;;;;;6.42;0.33;;;;;;;21.49;33.69;100405.58;1760464;79;21026;-88
2021/05/22 07:57:16;;;;;;;;;;;;;;;21.48;33.50;100389.85;1750221;80;21142;-88
2021/05/22 07:59:43;;;;;;;2.52;0.45;;;;;;;21.48;32.45;100377.65;1756533;81;20240;-90
2021/05/22 08:02:09;;;;;;;;;;;;;;;21.45;33.05;100397.14;1748871;80;21120;-89
2021/05/22 08:04:36;;;;;;;2.05;0.10;;;;;;;21.45;33.24;100391.72;1777303;78;20228;-89
2021/05/22 08:07:03;;;;;;;1.12;0.20;;;;;;;21.41;33.15;100397.35;1783138;79;21110;-87
2021/05/22 08:09:29;;;;;;;8.20;0.33;;;;;;;21.45;32.69;100393.07;1808580;79;21100;-87
2021/05/22 08:11:56;;;;;;;2.12;0.20;;;;;;;21.47;32.50;100387.39;1787459;79;20986;-84
2021/05/22 08:14:22;;;;;;;;;;;;;;;21.51;33.26;100385.79;1817973;79;21207;-87
2021/05/22 08:16:48;;;;;;;1.30;0.10;;;;;;;21.58;32.44;100387.75;1794575;79;20203;-86
2021/05/22 08:19:15;;;;;;;1.20;0.20;;;;;;;21.57;32.88;100385.58;1773542;79;21072;-87
2021/05/22 08:21:42;;;;;;;0.45;0.10;;;;;;;21.61;32.42;100386.43;1771393;79;21092;-89
2021/05/22 08:24:10;;;;;;;3.90;0.20;;;;;;;21.68;31.69;100374.27;1760350;79;21027;-88
2021/05/22 08:26:39;;;;;;;1.42;0.10;;;;;;;21.81;32.30;100381.11;1779110;79;21036;-88
2021/05/22 08:29:06;;;;;;;3.25;0.28;;;;;;;21.95;31.16;100370.08;1776420;79;21712;-89
2021/05/22 08:31:32;;;;;;;6.83;0.62;;;;;;;21.97;31.00;100373.34;1791270;79;21084;-89
2021/05/22 08:34:00;;;;;;;3.80;0.10;;;;;;;22.01;31.37;100372.28;1785224;79;21068;-87
2021/05/22 08:36:27;;;;;;;2.35;0.10;;;;;;;22.01;31.29;100370.12;1769951;79;21246;-88
2021/05/22 08:38:56;;;;;;;0.68;0.10;;;;;;;21.90;31.08;100370.05;1777311;79;21264;-87
2021/05/22 08:41:22;;;;;;;0.37;0.10;;;;;;;21.84;31.03;100369.75;1769734;79;21100;-89
2021/05/22 08:43:48;;;;;;;1.65;0.10;;;;;;;21.83;30.98;100363.22;1784917;79;21139;-88
2021/05/22 08:46:16;;;;;;;;;;;;;;;21.79;31.54;100365.64;1783745;79;21218;-88
2021/05/22 08:48:43;;;;;;;2.40;0.10;;;;;;;21.79;31.23;100358.86;1777339;79;20615;-90
2021/05/22 08:51:10;;;;;;;1.67;0.40;;;;;;;21.79;31.02;100348.00;1739201;81;21075;-87
2021/05/22 08:53:37;;;;;;;1.07;0.30;;;;;;;21.81;31.18;100349.91;1757863;81;20993;-87
2021/05/22 08:56:04;;;;;;;0.80;0.13;;;;;;;21.81;31.27;100343.13;1746057;79;20970;-88
2021/05/22 08:58:32;;;;;;;5.20;0.20;;;;;;;21.77;31.31;100353.72;1710002;81;21100;-89
2021/05/22 09:01:01;;;;;;;0.50;0.25;;;;;;;21.73;31.63;100346.34;1738948;81;21014;-90
2021/05/22 09:03:28;;;;;;;2.42;0.20;;;;;;;21.72;30.71;100346.89;1782048;79;21514;-90
2021/05/22 09:05:55;;;;;;;1.17;0.10;;;;;;;21.71;31.11;100338.47;1768474;79;21072;-88
2021/05/22 09:08:21;;;;;;;0.95;0.15;;;;;;;21.53;30.61;100326.17;1785896;79;21092;-90
2021/05/22 09:10:52;;;;;;;0.10;0.10;;;;;;;21.41;30.88;100332.83;1770760;79;21093;-88
2021/05/22 09:13:27;;;;;;;1.35;0.10;;;;;;;21.41;30.61;100332.83;1769661;79;21139;-92
2021/05/22 09:16:09;;;;;;;0.78;0.20;;;;;;;21.54;30.20;100337.28;1785067;79;21234;-87
2021/05/22 09:18:39;;;;;;;5.15;0.20;;;;;;;21.70;30.63;100337.37;1733755;81;21199;-90
2021/05/22 09:21:09;;;;;;;1.00;0.33;;;;;;;21.80;30.67;100342.06;1784009;79;21028;-89
2021/05/22 09:23:40;;;;;;;2.25;0.30;;;;;;;21.77;31.05;100336.60;1785924;79;21039;-88
2021/05/22 09:26:17;;;;;;;0.95;0.10;;;;;;;21.75;31.07;100337.41;1781446;79;21044;-90
2021/05/22 09:28:50;;;;;;;2.02;0.10;;;;;;;21.74;30.86;100324.94;1775822;79;21147;-88
2021/05/22 09:31:24;;;;;;;3.05;0.20;;;;;;;21.70;30.53;100334.66;1758881;79;21125;-89
2021/05/22 09:33:59;;;;;;;0.70;0.10;;;;;;;21.62;31.06;100330.55;1776269;79;21233;-88
2021/05/22 09:36:26;;;;;;;0.85;0.10;;;;;;;21.64;31.27;100328.93;1804048;79;21556;-89
2021/05/22 09:38:56;;;;;;;4.40;0.20;;;;;;;21.67;31.34;100324.34;1774422;79;21070;-89
2021/05/22 09:41:28;;;;;;;0.75;0.10;;;;;;;21.65;31.27;100320.53;1778505;79;21177;-87
2021/05/22 09:44:13;;;;;;;0.70;0.20;;;;;;;21.66;31.29;100317.28;1780711;79;21187;-88
2021/05/22 09:46:50;;;;;;;1.27;0.10;;;;;;;21.70;31.11;100327.36;1788646;79;21184;-88
2021/05/22 09:49:24;;;;;;;0.68;0.10;;;;;;;21.72;30.73;100315.70;1723110;81;21104;-89
2021/05/22 09:51:58;;;;;;;0.40;0.10;;;;;;;21.71;30.62;100320.03;1704670;83;21799;-87
2021/05/22 09:54:52;;;;;;;1.22;0.13;;;;;;;21.70;31.03;100316.50;1776302;80;21056;-89
2021/05/22 09:57:38;;;;;;;0.60;0.13;;;;;;;21.71;30.65;100314.05;1731637;81;21099;-89
2021/05/22 10:00:15;;;;;;;0.68;0.10;;;;;;;21.73;30.77;100310.53;1758290;80;21097;-89
2021/05/22 10:02:50;;;;;;;1.53;0.10;;;;;;;21.77;31.31;100308.11;1734790;81;21750;-89
2021/05/22 10:05:22;;;;;;;0.85;0.20;;;;;;;21.78;31.88;100293.48;1738761;81;21073;-89
2021/05/22 10:07:53;;;;;;;0.30;0.10;;;;;;;22.03;31.16;100305.53;1733929;81;21109;-89
2021/05/22 10:10:22;;;;;;;2.27;0.17;;;;;;;22.11;30.65;100308.56;1740143;81;21170;-90
2021/05/22 10:12:49;;;;;;;1.42;0.10;;;;;;;22.10;30.64;100300.67;1744720;80;21109;-90
2021/05/22 10:15:19;;;;;;;1.67;0.10;;;;;;;21.94;30.46;100297.91;1731701;80;21184;-90
2021/05/22 10:17:49;;;;;;;1.05;0.10;;;;;;;21.88;31.75;100293.52;1750291;80;21060;-89
2021/05/22 10:20:15;;;;;;;2.77;0.10;;;;;;;21.95;31.32;100291.93;1731856;80;21097;-89
2021/05/22 10:22:42;;;;;;;;;;;;;;;22.03;31.50;100291.96;1745234;80;21046;-89
2021/05/22 10:25:09;;;;;;;;;;;;;;;22.01;29.85;100287.34;1740852;80;20205;-92
2021/05/22 10:27:36;;;;;;;;;;;;;;;21.86;30.03;100281.31;1729408;80;20212;-90
2021/05/22 10:30:06;;;;;;;3.62;0.20;;;;;;;21.77;30.69;100278.27;1733925;80;20209;-90
2021/05/22 10:32:37;;;;;;;1.22;0.10;;;;;;;21.73;31.30;100267.13;1740977;80;21113;-88
2021/05/22 10:35:24;;;;;;;0.65;0.10;;;;;;;21.76;31.00;100267.16;1709419;81;21262;-91
2021/05/22 10:37:51;;;;;;;0.95;0.10;;;;;;;21.81;31.38;100267.16;1722197;81;21142;-91
2021/05/22 10:40:51;;;;;;;2.10;0.20;;;;;;;21.85;30.92;100263.38;1691260;83;21112;-89
2021/05/22 10:43:39;;;;;;;0.33;0.17;;;;;;;21.93;30.63;100260.98;1722224;81;21703;-89
2021/05/22 10:46:07;;;;;;;2.08;0.10;;;;;;;22.03;30.89;100250.70;1744241;80;21160;-89
2021/05/22 10:48:39;;;;;;;3.12;0.25;;;;;;;22.09;31.73;100246.11;1731064;80;21092;-90
2021/05/22 10:51:28;;;;;;;1.65;0.20;;;;;;;22.13;31.30;100237.17;1713096;81;21069;-90
2021/05/22 10:53:58;;;;;;;1.52;0.15;;;;;;;22.15;31.92;100245.86;1715750;81;21023;-91
2021/05/22 10:56:24;;;;;;;1.00;0.23;;;;;;;22.23;31.84;100226.87;1694643;82;20971;-90
2021/05/22 10:59:09;;;;;;;1.00;0.20;;;;;;;22.31;31.58;100222.30;1739257;81;21066;-90
2021/05/22 11:01:40;;;;;;;1.07;0.20;;;;;;;22.39;31.45;100227.73;1711641;81;21046;-89
2021/05/22 11:04:13;;;;;;;0.25;0.10;;;;;;;22.47;31.25;100225.86;1738212;81;21213;-90
2021/05/22 11:06:59;;;;;;;0.50;0.10;;;;;;;22.45;30.97;100228.55;1734951;81;21166;-91
2021/05/22 11:09:36;;;;;;;1.50;0.45;;;;;;;22.24;31.33;100188.32;1723694;81;21167;-89
2021/05/22 11:12:14;;;;;;;0.85;0.10;;;;;;;22.49;30.81;100226.92;1719244;81;21130;-90
2021/05/22 11:14:44;;;;;;;0.95;0.20;;;;;;;22.55;30.48;100211.73;1696618;83;21135;-91
2021/05/22 11:17:26;;;;;;;1.10;0.10;;;;;;;22.50;30.39;100217.70;1739901;80;21108;-89
2021/05/22 11:20:11;;;;;;;4.25;0.35;;;;;;;22.50;30.23;100217.70;1733477;81;21106;-90
2021/05/22 11:22:45;;;;;;;0.50;0.17;;;;;;;22.34;30.35;100214.17;1722407;81;21109;-89
2021/05/22 11:25:18;;;;;;;1.37;0.10;;;;;;;22.24;29.71;100208.12;1717114;81;21082;-89
2021/05/22 11:27:57;;;;;;;1.85;0.10;;;;;;;22.20;29.90;100204.33;1722997;81;21797;-90
2021/05/22 11:30:36;;;;;;;1.55;0.10;;;;;;;22.17;29.80;100199.45;1755093;81;21247;-90
2021/05/22 11:33:04;;;;;;;0.57;0.15;;;;;;;22.12;30.26;100195.37;1783483;80;21152;-91
2021/05/22 11:35:34;;;;;;;4.33;0.25;;;;;;;22.16;30.30;100193.73;1762459;80;21057;-89
2021/05/22 11:38:21;;;;;;;0.40;0.10;;;;;;;22.19;30.34;100198.64;1743964;80;21089;-89